sensor_id;sensor_type;location;lat;lon;timestamp;pressure;altitude;pressure_sealevel;temperature;humidity
40730;BME280;26418;50.070;8.436;2023-02-10T00:01:08;101931.16;;;-2.67;84.01
40730;BME280;26418;50.070;8.436;2023-02-10T00:03:34;101933.63;;;-2.65;84.48
40730;BME280;26418;50.070;8.436;2023-02-10T00:06:00;101933.13;;;-2.69;84.63
40730;BME280;26418;50.070;8.436;2023-02-10T00:08:26;101931.66;;;-2.72;84.28
40730;BME280;26418;50.070;8.436;2023-02-10T00:10:51;101940.56;;;-2.73;84.17
40730;BME280;26418;50.070;8.436;2023-02-10T00:13:17;101941.72;;;-2.75;84.35
40730;BME280;26418;50.070;8.436;2023-02-10T00:15:42;101943.53;;;-2.76;84.65
40730;BME280;26418;50.070;8.436;2023-02-10T00:18:08;101938.91;;;-2.74;84.59
40730;BME280;26418;50.070;8.436;2023-02-10T00:20:34;101946.38;;;-2.69;84.63
40730;BME280;26418;50.070;8.436;2023-02-10T00:22:59;101945.56;;;-2.61;84.65
40730;BME280;26418;50.070;8.436;2023-02-10T00:25:24;101944.06;;;-2.64;84.67
40730;BME280;26418;50.070;8.436;2023-02-10T00:27:50;101948.72;;;-2.66;84.68
40730;BME280;26418;50.070;8.436;2023-02-10T00:30:15;101960.31;;;-2.59;84.38
40730;BME280;26418;50.070;8.436;2023-02-10T00:32:40;101964.13;;;-2.61;84.47
40730;BME280;26418;50.070;8.436;2023-02-10T00:35:07;101956.16;;;-2.70;84.09
40730;BME280;26418;50.070;8.436;2023-02-10T00:37:32;101960.28;;;-2.75;84.35
40730;BME280;26418;50.070;8.436;2023-02-10T00:39:58;101957.59;;;-2.83;84.61
40730;BME280;26418;50.070;8.436;2023-02-10T00:42:23;101964.88;;;-2.86;84.92
40730;BME280;26418;50.070;8.436;2023-02-10T00:44:49;101968.31;;;-2.93;85.06
40730;BME280;26418;50.070;8.436;2023-02-10T00:47:14;101973.09;;;-2.97;85.04
40730;BME280;26418;50.070;8.436;2023-02-10T00:49:40;101961.16;;;-3.01;85.33
40730;BME280;26418;50.070;8.436;2023-02-10T00:52:05;101968.78;;;-2.98;85.85
40730;BME280;26418;50.070;8.436;2023-02-10T00:54:30;101981.59;;;-2.77;85.70
40730;BME280;26418;50.070;8.436;2023-02-10T00:56:56;101978.63;;;-2.74;85.34
40730;BME280;26418;50.070;8.436;2023-02-10T00:59:21;101982.63;;;-2.70;85.06
40730;BME280;26418;50.070;8.436;2023-02-10T01:01:46;101988.94;;;-2.71;85.00
40730;BME280;26418;50.070;8.436;2023-02-10T01:04:12;101987.56;;;-2.75;84.68
40730;BME280;26418;50.070;8.436;2023-02-10T01:06:38;101991.69;;;-2.80;84.96
40730;BME280;26418;50.070;8.436;2023-02-10T01:09:03;101976.72;;;-2.98;84.91
40730;BME280;26418;50.070;8.436;2023-02-10T01:11:28;101991.50;;;-2.87;85.12
40730;BME280;26418;50.070;8.436;2023-02-10T01:13:54;102000.63;;;-2.90;85.54
40730;BME280;26418;50.070;8.436;2023-02-10T01:16:19;101999.44;;;-2.95;85.41
40730;BME280;26418;50.070;8.436;2023-02-10T01:18:45;101982.34;;;-3.01;85.63
40730;BME280;26418;50.070;8.436;2023-02-10T01:21:13;101997.91;;;-2.98;85.70
40730;BME280;26418;50.070;8.436;2023-02-10T01:23:39;101994.91;;;-3.03;85.75
40730;BME280;26418;50.070;8.436;2023-02-10T01:26:05;101996.88;;;-3.05;86.04
40730;BME280;26418;50.070;8.436;2023-02-10T01:28:30;101992.72;;;-3.08;85.85
40730;BME280;26418;50.070;8.436;2023-02-10T01:30:56;101996.03;;;-3.14;85.78
40730;BME280;26418;50.070;8.436;2023-02-10T01:33:21;102004.78;;;-3.13;86.08
40730;BME280;26418;50.070;8.436;2023-02-10T01:35:46;101999.81;;;-3.17;86.02
40730;BME280;26418;50.070;8.436;2023-02-10T01:38:12;101992.66;;;-3.24;86.05
40730;BME280;26418;50.070;8.436;2023-02-10T01:40:37;102017.50;;;-3.17;86.28
40730;BME280;26418;50.070;8.436;2023-02-10T01:43:04;102010.41;;;-3.17;86.21
40730;BME280;26418;50.070;8.436;2023-02-10T01:45:37;102007.91;;;-3.18;86.21
40730;BME280;26418;50.070;8.436;2023-02-10T01:48:04;102007.06;;;-3.19;86.55
40730;BME280;26418;50.070;8.436;2023-02-10T01:50:41;102015.75;;;-3.08;86.82
40730;BME280;26418;50.070;8.436;2023-02-10T01:53:07;102002.84;;;-3.03;87.03
40730;BME280;26418;50.070;8.436;2023-02-10T01:55:35;102001.56;;;-2.99;86.40
40730;BME280;26418;50.070;8.436;2023-02-10T01:58:08;102013.69;;;-2.88;86.41
40730;BME280;26418;50.070;8.436;2023-02-10T02:00:34;102010.91;;;-2.78;86.55
40730;BME280;26418;50.070;8.436;2023-02-10T02:03:01;102005.78;;;-2.80;86.12
40730;BME280;26418;50.070;8.436;2023-02-10T02:05:37;102020.19;;;-2.74;86.33
40730;BME280;26418;50.070;8.436;2023-02-10T02:18:43;102023.28;;;-2.36;86.43
40730;BME280;26418;50.070;8.436;2023-02-10T02:33:58;102003.09;;;-1.54;82.23
40730;BME280;26418;50.070;8.436;2023-02-10T02:36:27;102018.00;;;-1.37;81.69
40730;BME280;26418;50.070;8.436;2023-02-10T02:38:59;102025.34;;;-1.39;81.66
40730;BME280;26418;50.070;8.436;2023-02-10T02:41:26;102026.66;;;-1.43;80.97
40730;BME280;26418;50.070;8.436;2023-02-10T02:43:52;102029.00;;;-1.48;81.18
40730;BME280;26418;50.070;8.436;2023-02-10T02:46:27;102025.66;;;-1.50;81.93
40730;BME280;26418;50.070;8.436;2023-02-10T02:54:27;102034.13;;;-1.47;83.02
40730;BME280;26418;50.070;8.436;2023-02-10T02:57:18;102017.88;;;-1.52;83.24
40730;BME280;26418;50.070;8.436;2023-02-10T02:59:55;102025.16;;;-1.37;83.30
40730;BME280;26418;50.070;8.436;2023-02-10T03:02:25;102033.59;;;-1.34;83.54
40730;BME280;26418;50.070;8.436;2023-02-10T03:04:54;102027.97;;;-1.31;83.52
40730;BME280;26418;50.070;8.436;2023-02-10T03:07:20;102036.06;;;-1.24;83.48
40730;BME280;26418;50.070;8.436;2023-02-10T03:09:45;102017.66;;;-1.25;83.67
40730;BME280;26418;50.070;8.436;2023-02-10T03:12:11;102025.59;;;-1.17;83.73
40730;BME280;26418;50.070;8.436;2023-02-10T03:14:37;102027.09;;;-1.15;83.53
40730;BME280;26418;50.070;8.436;2023-02-10T03:17:03;102021.97;;;-1.16;83.62
40730;BME280;26418;50.070;8.436;2023-02-10T03:19:28;102022.78;;;-1.16;83.97
40730;BME280;26418;50.070;8.436;2023-02-10T03:21:54;102009.84;;;-1.19;83.92
40730;BME280;26418;50.070;8.436;2023-02-10T03:24:19;102015.16;;;-1.11;84.21
40730;BME280;26418;50.070;8.436;2023-02-10T03:26:45;102028.41;;;-1.02;84.50
40730;BME280;26418;50.070;8.436;2023-02-10T03:29:11;102021.44;;;-1.03;84.31
40730;BME280;26418;50.070;8.436;2023-02-10T03:31:37;102031.69;;;-1.00;84.47
40730;BME280;26418;50.070;8.436;2023-02-10T03:34:03;102030.84;;;-0.92;84.54
40730;BME280;26418;50.070;8.436;2023-02-10T03:36:28;102032.00;;;-0.87;84.50
40730;BME280;26418;50.070;8.436;2023-02-10T03:38:54;102039.59;;;-0.84;84.40
40730;BME280;26418;50.070;8.436;2023-02-10T03:41:19;102035.78;;;-0.81;84.51
40730;BME280;26418;50.070;8.436;2023-02-10T03:43:44;102042.09;;;-0.82;84.12
40730;BME280;26418;50.070;8.436;2023-02-10T03:46:10;102040.25;;;-0.82;84.42
40730;BME280;26418;50.070;8.436;2023-02-10T03:48:35;102039.25;;;-0.81;84.23
40730;BME280;26418;50.070;8.436;2023-02-10T03:51:04;102043.75;;;-0.81;84.26
40730;BME280;26418;50.070;8.436;2023-02-10T03:53:30;102048.22;;;-0.82;84.42
40730;BME280;26418;50.070;8.436;2023-02-10T03:55:56;102035.78;;;-0.81;84.50
40730;BME280;26418;50.070;8.436;2023-02-10T03:58:21;102039.75;;;-0.77;84.09
40730;BME280;26418;50.070;8.436;2023-02-10T04:00:47;102031.97;;;-0.78;83.83
40730;BME280;26418;50.070;8.436;2023-02-10T04:03:13;102043.69;;;-0.65;80.99
40730;BME280;26418;50.070;8.436;2023-02-10T04:05:38;102038.38;;;-0.65;78.95
40730;BME280;26418;50.070;8.436;2023-02-10T04:08:04;102049.13;;;-0.58;78.14
40730;BME280;26418;50.070;8.436;2023-02-10T04:10:29;102035.06;;;-0.67;77.94
40730;BME280;26418;50.070;8.436;2023-02-10T04:12:55;102044.34;;;-0.63;77.05
40730;BME280;26418;50.070;8.436;2023-02-10T04:15:20;102047.00;;;-0.63;77.17
40730;BME280;26418;50.070;8.436;2023-02-10T04:17:46;102055.31;;;-0.66;76.96
40730;BME280;26418;50.070;8.436;2023-02-10T04:20:12;102058.97;;;-0.67;76.69
40730;BME280;26418;50.070;8.436;2023-02-10T04:22:37;102056.66;;;-0.70;76.43
40730;BME280;26418;50.070;8.436;2023-02-10T04:25:04;102061.16;;;-0.70;75.90
40730;BME280;26418;50.070;8.436;2023-02-10T04:27:29;102064.47;;;-0.68;75.46
40730;BME280;26418;50.070;8.436;2023-02-10T04:29:54;102068.94;;;-0.69;75.69
40730;BME280;26418;50.070;8.436;2023-02-10T04:32:20;102063.63;;;-0.69;75.12
40730;BME280;26418;50.070;8.436;2023-02-10T04:34:46;102061.47;;;-0.65;75.12
40730;BME280;26418;50.070;8.436;2023-02-10T04:37:11;102067.66;;;-0.73;75.11
40730;BME280;26418;50.070;8.436;2023-02-10T04:39:36;102066.00;;;-0.74;75.03
40730;BME280;26418;50.070;8.436;2023-02-10T04:42:02;102078.28;;;-0.73;74.78
40730;BME280;26418;50.070;8.436;2023-02-10T04:44:27;102077.59;;;-0.75;74.59
40730;BME280;26418;50.070;8.436;2023-02-10T04:46:53;102070.63;;;-0.76;74.73
40730;BME280;26418;50.070;8.436;2023-02-10T04:49:18;102070.97;;;-0.79;74.41
40730;BME280;26418;50.070;8.436;2023-02-10T04:51:44;102075.47;;;-0.80;74.73
40730;BME280;26418;50.070;8.436;2023-02-10T04:54:09;102069.66;;;-0.83;74.99
40730;BME280;26418;50.070;8.436;2023-02-10T04:56:34;102091.06;;;-0.76;75.09
40730;BME280;26418;50.070;8.436;2023-02-10T04:59:00;102079.28;;;-0.82;75.38
40730;BME280;26418;50.070;8.436;2023-02-10T05:01:25;102090.22;;;-0.77;75.77
40730;BME280;26418;50.070;8.436;2023-02-10T05:03:50;102087.25;;;-0.82;76.08
40730;BME280;26418;50.070;8.436;2023-02-10T05:06:16;102102.84;;;-0.79;76.92
40730;BME280;26418;50.070;8.436;2023-02-10T05:08:41;102096.53;;;-0.78;77.80
40730;BME280;26418;50.070;8.436;2023-02-10T05:11:08;102104.03;;;-0.82;78.28
40730;BME280;26418;50.070;8.436;2023-02-10T05:13:34;102099.88;;;-0.84;79.09
40730;BME280;26418;50.070;8.436;2023-02-10T05:16:00;102101.06;;;-0.87;79.67
40730;BME280;26418;50.070;8.436;2023-02-10T05:18:28;102107.53;;;-0.89;80.11
40730;BME280;26418;50.070;8.436;2023-02-10T05:20:53;102103.91;;;-0.97;80.83
40730;BME280;26418;50.070;8.436;2023-02-10T05:23:18;102101.56;;;-0.91;81.40
40730;BME280;26418;50.070;8.436;2023-02-10T05:25:43;102096.06;;;-0.90;81.38
40730;BME280;26418;50.070;8.436;2023-02-10T05:28:09;102099.88;;;-0.84;81.35
40730;BME280;26418;50.070;8.436;2023-02-10T05:30:34;102098.72;;;-0.82;81.34
40730;BME280;26418;50.070;8.436;2023-02-10T05:32:59;102098.56;;;-0.80;81.58
40730;BME280;26418;50.070;8.436;2023-02-10T05:35:25;102096.38;;;-0.76;81.48
40730;BME280;26418;50.070;8.436;2023-02-10T05:37:50;102092.56;;;-0.74;81.15
40730;BME280;26418;50.070;8.436;2023-02-10T05:40:15;102100.66;;;-0.67;80.88
40730;BME280;26418;50.070;8.436;2023-02-10T05:42:41;102102.16;;;-0.65;80.87
40730;BME280;26418;50.070;8.436;2023-02-10T05:45:06;102103.31;;;-0.67;80.98
40730;BME280;26418;50.070;8.436;2023-02-10T05:47:32;102098.66;;;-0.65;80.76
40730;BME280;26418;50.070;8.436;2023-02-10T05:49:57;102102.66;;;-0.61;81.13
40730;BME280;26418;50.070;8.436;2023-02-10T05:52:22;102110.44;;;-0.59;80.84
40730;BME280;26418;50.070;8.436;2023-02-10T05:54:48;102099.00;;;-0.60;81.07
40730;BME280;26418;50.070;8.436;2023-02-10T05:57:13;102105.59;;;-0.56;80.40
40730;BME280;26418;50.070;8.436;2023-02-10T05:59:38;102104.59;;;-0.55;80.18
40730;BME280;26418;50.070;8.436;2023-02-10T06:02:03;102107.09;;;-0.53;79.87
40730;BME280;26418;50.070;8.436;2023-02-10T06:04:29;102098.78;;;-0.50;79.51
40730;BME280;26418;50.070;8.436;2023-02-10T06:06:54;102099.28;;;-0.55;79.14
40730;BME280;26418;50.070;8.436;2023-02-10T06:09:19;102095.84;;;-0.64;79.46
40730;BME280;26418;50.070;8.436;2023-02-10T06:11:48;102104.59;;;-0.55;79.46
40730;BME280;26418;50.070;8.436;2023-02-10T06:14:13;102100.09;;;-0.54;79.57
40730;BME280;26418;50.070;8.436;2023-02-10T06:16:38;102099.09;;;-0.53;79.20
40730;BME280;26418;50.070;8.436;2023-02-10T06:19:04;102090.50;;;-0.55;79.51
40730;BME280;26418;50.070;8.436;2023-02-10T06:21:29;102104.75;;;-0.48;78.94
40730;BME280;26418;50.070;8.436;2023-02-10T06:23:54;102095.94;;;-0.49;79.60
40730;BME280;26418;50.070;8.436;2023-02-10T06:26:20;102101.22;;;-0.40;83.06
40730;BME280;26418;50.070;8.436;2023-02-10T06:28:45;102106.22;;;-0.06;87.26
40730;BME280;26418;50.070;8.436;2023-02-10T06:31:10;102108.47;;;0.29;89.71
40730;BME280;26418;50.070;8.436;2023-02-10T06:33:36;102101.38;;;0.44;90.51
40730;BME280;26418;50.070;8.436;2023-02-10T06:36:02;102097.38;;;0.49;90.47
40730;BME280;26418;50.070;8.436;2023-02-10T06:38:31;102112.28;;;0.58;89.94
40730;BME280;26418;50.070;8.436;2023-02-10T06:40:57;102110.16;;;0.53;90.37
40730;BME280;26418;50.070;8.436;2023-02-10T06:43:22;102120.41;;;0.56;90.79
40730;BME280;26418;50.070;8.436;2023-02-10T06:45:47;102124.84;;;0.64;91.94
40730;BME280;26418;50.070;8.436;2023-02-10T06:48:13;102127.31;;;0.89;94.19
40730;BME280;26418;50.070;8.436;2023-02-10T06:50:38;102119.78;;;1.22;96.52
40730;BME280;26418;50.070;8.436;2023-02-10T06:53:04;102128.41;;;1.84;100.00
40730;BME280;26418;50.070;8.436;2023-02-10T06:55:30;102100.03;;;2.20;100.00
40730;BME280;26418;50.070;8.436;2023-02-10T06:57:58;102127.13;;;2.17;94.74
40730;BME280;26418;50.070;8.436;2023-02-10T07:00:24;102126.63;;;1.92;89.85
40730;BME280;26418;50.070;8.436;2023-02-10T07:02:49;102127.72;;;1.61;86.12
40730;BME280;26418;50.070;8.436;2023-02-10T07:05:14;102120.81;;;1.06;80.49
40730;BME280;26418;50.070;8.436;2023-02-10T07:07:40;102118.28;;;0.75;79.29
40730;BME280;26418;50.070;8.436;2023-02-10T07:10:06;102147.75;;;0.50;79.71
40730;BME280;26418;50.070;8.436;2023-02-10T07:12:31;102148.22;;;0.30;80.26
40730;BME280;26418;50.070;8.436;2023-02-10T07:14:57;102158.97;;;0.14;81.36
40730;BME280;26418;50.070;8.436;2023-02-10T07:17:22;102164.00;;;0.09;82.74
40730;BME280;26418;50.070;8.436;2023-02-10T07:19:47;102169.50;;;0.07;82.03
40730;BME280;26418;50.070;8.436;2023-02-10T07:22:12;102169.03;;;0.04;82.03
40730;BME280;26418;50.070;8.436;2023-02-10T07:24:38;102167.19;;;0.04;80.69
40730;BME280;26418;50.070;8.436;2023-02-10T07:27:04;102151.97;;;-0.10;80.04
40730;BME280;26418;50.070;8.436;2023-02-10T07:29:29;102168.22;;;-0.05;80.18
40730;BME280;26418;50.070;8.436;2023-02-10T07:31:55;102151.28;;;-0.12;80.00
40730;BME280;26418;50.070;8.436;2023-02-10T07:34:23;102157.44;;;-0.12;79.48
40730;BME280;26418;50.070;8.436;2023-02-10T07:36:49;102159.94;;;-0.10;79.82
40730;BME280;26418;50.070;8.436;2023-02-10T07:39:21;102168.69;;;-0.02;80.33
40730;BME280;26418;50.070;8.436;2023-02-10T07:41:46;102169.19;;;0.02;79.91
40730;BME280;26418;50.070;8.436;2023-02-10T07:44:11;102176.97;;;0.12;80.08
40730;BME280;26418;50.070;8.436;2023-02-10T07:46:37;102178.53;;;0.21;79.68
40730;BME280;26418;50.070;8.436;2023-02-10T07:49:02;102184.66;;;0.30;79.44
40730;BME280;26418;50.070;8.436;2023-02-10T07:51:27;102186.63;;;0.36;78.93
40730;BME280;26418;50.070;8.436;2023-02-10T07:53:52;102195.56;;;0.43;78.66
40730;BME280;26418;50.070;8.436;2023-02-10T07:56:18;102200.81;;;0.52;78.93
40730;BME280;26418;50.070;8.436;2023-02-10T07:58:43;102199.47;;;0.56;77.93
40730;BME280;26418;50.070;8.436;2023-02-10T08:01:10;102200.78;;;0.60;77.45
40730;BME280;26418;50.070;8.436;2023-02-10T08:03:35;102205.56;;;0.65;77.43
40730;BME280;26418;50.070;8.436;2023-02-10T08:06:01;102195.91;;;0.63;77.10
40730;BME280;26418;50.070;8.436;2023-02-10T08:08:26;102191.72;;;0.69;77.28
40730;BME280;26418;50.070;8.436;2023-02-10T08:10:51;102189.78;;;0.86;78.81
40730;BME280;26418;50.070;8.436;2023-02-10T08:13:17;102192.47;;;1.01;78.42
40730;BME280;26418;50.070;8.436;2023-02-10T08:15:43;102198.56;;;1.10;77.64
40730;BME280;26418;50.070;8.436;2023-02-10T08:18:08;102190.84;;;1.15;77.19
40730;BME280;26418;50.070;8.436;2023-02-10T08:20:33;102181.19;;;1.14;76.50
40730;BME280;26418;50.070;8.436;2023-02-10T08:22:59;102189.19;;;1.14;76.91
40730;BME280;26418;50.070;8.436;2023-02-10T08:25:24;102185.78;;;1.05;76.32
40730;BME280;26418;50.070;8.436;2023-02-10T08:27:50;102195.78;;;1.03;77.89
40730;BME280;26418;50.070;8.436;2023-02-10T08:30:17;102190.34;;;0.97;77.61
40730;BME280;26418;50.070;8.436;2023-02-10T08:32:43;102202.91;;;0.88;77.15
40730;BME280;26418;50.070;8.436;2023-02-10T08:35:08;102196.50;;;0.74;77.53
40730;BME280;26418;50.070;8.436;2023-02-10T08:37:34;102206.75;;;0.62;78.20
40730;BME280;26418;50.070;8.436;2023-02-10T08:39:59;102198.00;;;0.53;79.02
40730;BME280;26418;50.070;8.436;2023-02-10T08:42:25;102191.38;;;0.49;79.50
40730;BME280;26418;50.070;8.436;2023-02-10T08:44:51;102209.81;;;0.51;79.85
40730;BME280;26418;50.070;8.436;2023-02-10T08:47:16;102212.47;;;0.51;80.27
40730;BME280;26418;50.070;8.436;2023-02-10T08:49:41;102204.81;;;0.56;80.38
40730;BME280;26418;50.070;8.436;2023-02-10T08:52:07;102210.06;;;0.64;80.12
40730;BME280;26418;50.070;8.436;2023-02-10T08:54:33;102205.16;;;0.76;80.22
40730;BME280;26418;50.070;8.436;2023-02-10T08:56:58;102213.75;;;0.86;78.98
40730;BME280;26418;50.070;8.436;2023-02-10T08:59:23;102217.81;;;0.97;79.20
40730;BME280;26418;50.070;8.436;2023-02-10T09:01:49;102205.25;;;1.06;78.46
40730;BME280;26418;50.070;8.436;2023-02-10T09:04:16;102213.00;;;1.16;78.27
40730;BME280;26418;50.070;8.436;2023-02-10T09:06:42;102208.06;;;1.28;77.33
40730;BME280;26418;50.070;8.436;2023-02-10T09:09:16;102202.19;;;1.32;76.79
40730;BME280;26418;50.070;8.436;2023-02-10T09:11:42;102205.88;;;1.46;76.48
40730;BME280;26418;50.070;8.436;2023-02-10T09:14:08;102215.06;;;1.59;76.26
40730;BME280;26418;50.070;8.436;2023-02-10T09:16:34;102197.81;;;1.54;75.05
40730;BME280;26418;50.070;8.436;2023-02-10T09:19:00;102212.88;;;1.62;75.31
40730;BME280;26418;50.070;8.436;2023-02-10T09:21:25;102207.06;;;1.59;75.62
40730;BME280;26418;50.070;8.436;2023-02-10T09:23:51;102202.59;;;1.59;74.37
40730;BME280;26418;50.070;8.436;2023-02-10T09:26:16;102200.16;;;1.49;74.63
40730;BME280;26418;50.070;8.436;2023-02-10T09:28:42;102225.81;;;1.50;74.71
40730;BME280;26418;50.070;8.436;2023-02-10T09:31:09;102217.25;;;1.40;74.79
40730;BME280;26418;50.070;8.436;2023-02-10T09:33:35;102222.03;;;1.30;75.16
40730;BME280;26418;50.070;8.436;2023-02-10T09:36:03;102220.31;;;1.37;75.69
40730;BME280;26418;50.070;8.436;2023-02-10T09:38:29;102223.72;;;1.46;74.94
40730;BME280;26418;50.070;8.436;2023-02-10T09:44:01;102242.59;;;1.59;74.61
40730;BME280;26418;50.070;8.436;2023-02-10T09:54:16;102232.47;;;1.69;74.01
40730;BME280;26418;50.070;8.436;2023-02-10T09:56:42;102235.34;;;1.83;74.18
40730;BME280;26418;50.070;8.436;2023-02-10T09:59:14;102240.63;;;1.98;73.03
40730;BME280;26418;50.070;8.436;2023-02-10T10:01:49;102233.84;;;2.10;72.26
40730;BME280;26418;50.070;8.436;2023-02-10T10:04:17;102229.97;;;2.13;71.92
40730;BME280;26418;50.070;8.436;2023-02-10T10:06:49;102229.94;;;2.28;72.18
40730;BME280;26418;50.070;8.436;2023-02-10T10:09:48;102216.47;;;2.36;72.12
40730;BME280;26418;50.070;8.436;2023-02-10T10:12:15;102235.75;;;2.53;71.77
40730;BME280;26418;50.070;8.436;2023-02-10T10:14:41;102236.09;;;2.65;71.47
40730;BME280;26418;50.070;8.436;2023-02-10T10:31:16;102242.28;;;3.09;68.06
40730;BME280;26418;50.070;8.436;2023-02-10T10:33:51;102233.25;;;3.10;68.82
40730;BME280;26418;50.070;8.436;2023-02-10T10:39:03;102236.81;;;3.24;67.86
40730;BME280;26418;50.070;8.436;2023-02-10T10:41:33;102232.06;;;3.19;67.88
40730;BME280;26418;50.070;8.436;2023-02-10T10:44:00;102229.50;;;3.33;67.85
40730;BME280;26418;50.070;8.436;2023-02-10T10:46:38;102240.88;;;3.41;67.43
40730;BME280;26418;50.070;8.436;2023-02-10T10:49:05;102233.75;;;3.55;67.72
40730;BME280;26418;50.070;8.436;2023-02-10T10:51:31;102242.19;;;3.52;65.45
40730;BME280;26418;50.070;8.436;2023-02-10T10:53:59;102207.75;;;3.42;66.89
40730;BME280;26418;50.070;8.436;2023-02-10T10:58:55;102229.16;;;3.77;66.70
40730;BME280;26418;50.070;8.436;2023-02-10T11:01:33;102228.22;;;3.92;66.59
40730;BME280;26418;50.070;8.436;2023-02-10T11:04:06;102197.69;;;3.86;66.38
40730;BME280;26418;50.070;8.436;2023-02-10T11:06:34;102223.53;;;4.01;65.72
40730;BME280;26418;50.070;8.436;2023-02-10T11:09:03;102220.25;;;4.05;65.88
40730;BME280;26418;50.070;8.436;2023-02-10T11:11:41;102219.56;;;3.97;65.06
40730;BME280;26418;50.070;8.436;2023-02-10T11:14:21;102208.06;;;3.96;65.30
40730;BME280;26418;50.070;8.436;2023-02-10T11:16:52;102209.50;;;3.99;65.01
40730;BME280;26418;50.070;8.436;2023-02-10T11:19:27;102219.81;;;4.02;65.76
40730;BME280;26418;50.070;8.436;2023-02-10T11:21:53;102225.59;;;4.05;65.47
40730;BME280;26418;50.070;8.436;2023-02-10T11:26:53;102215.97;;;4.11;65.87
40730;BME280;26418;50.070;8.436;2023-02-10T11:29:19;102212.06;;;4.20;65.95
40730;BME280;26418;50.070;8.436;2023-02-10T11:31:45;102185.47;;;4.19;65.48
40730;BME280;26418;50.070;8.436;2023-02-10T11:34:21;102200.97;;;4.37;65.12
40730;BME280;26418;50.070;8.436;2023-02-10T11:36:48;102206.16;;;4.52;64.92
40730;BME280;26418;50.070;8.436;2023-02-10T11:39:30;102198.16;;;4.72;64.81
40730;BME280;26418;50.070;8.436;2023-02-10T11:41:57;102201.25;;;4.76;62.93
40730;BME280;26418;50.070;8.436;2023-02-10T11:44:32;102203.94;;;4.62;63.26
40730;BME280;26418;50.070;8.436;2023-02-10T11:47:15;102203.09;;;4.55;63.00
40730;BME280;26418;50.070;8.436;2023-02-10T11:49:49;102196.50;;;4.44;63.65
40730;BME280;26418;50.070;8.436;2023-02-10T11:52:17;102182.22;;;4.30;63.94
40730;BME280;26418;50.070;8.436;2023-02-10T11:54:44;102191.69;;;4.19;64.66
40730;BME280;26418;50.070;8.436;2023-02-10T11:57:17;102190.84;;;4.19;65.04
40730;BME280;26418;50.070;8.436;2023-02-10T12:00:25;102180.78;;;4.34;64.65
40730;BME280;26418;50.070;8.436;2023-02-10T12:06:01;102178.56;;;4.51;64.16
40730;BME280;26418;50.070;8.436;2023-02-10T12:17:40;102179.00;;;5.09;64.83
40730;BME280;26418;50.070;8.436;2023-02-10T12:31:28;102167.13;;;6.54;67.99
40730;BME280;26418;50.070;8.436;2023-02-10T12:37:03;102155.03;;;6.70;61.88
40730;BME280;26418;50.070;8.436;2023-02-10T12:39:42;102156.53;;;6.27;59.65
40730;BME280;26418;50.070;8.436;2023-02-10T12:42:30;102148.78;;;6.12;61.14
40730;BME280;26418;50.070;8.436;2023-02-10T12:45:20;102151.66;;;6.11;60.50
40730;BME280;26418;50.070;8.436;2023-02-10T12:48:25;102157.34;;;5.89;61.50
40730;BME280;26418;50.070;8.436;2023-02-10T12:51:21;102147.97;;;5.46;62.51
40730;BME280;26418;50.070;8.436;2023-02-10T12:53:55;102153.72;;;5.57;63.26
40730;BME280;26418;50.070;8.436;2023-02-10T12:56:40;102149.00;;;5.52;62.47
40730;BME280;26418;50.070;8.436;2023-02-10T12:59:18;102149.44;;;5.42;63.33
40730;BME280;26418;50.070;8.436;2023-02-10T13:01:50;102139.91;;;5.53;63.14
40730;BME280;26418;50.070;8.436;2023-02-10T13:05:00;102135.78;;;5.57;62.96
40730;BME280;26418;50.070;8.436;2023-02-10T13:07:15;102127.97;;;5.49;63.63
40730;BME280;26418;50.070;8.436;2023-02-10T13:09:48;102115.13;;;5.58;64.04
40730;BME280;26418;50.070;8.436;2023-02-10T13:12:20;102120.66;;;5.70;63.15
40730;BME280;26418;50.070;8.436;2023-02-10T13:14:48;102122.72;;;5.67;62.83
40730;BME280;26418;50.070;8.436;2023-02-10T13:17:15;102116.53;;;5.60;62.54
40730;BME280;26418;50.070;8.436;2023-02-10T13:20:08;102113.69;;;5.48;62.99
40730;BME280;26418;50.070;8.436;2023-02-10T13:22:58;102124.47;;;5.35;63.56
40730;BME280;26418;50.070;8.436;2023-02-10T13:25:41;102114.38;;;5.24;64.26
40730;BME280;26418;50.070;8.436;2023-02-10T13:34:18;102116.84;;;5.32;64.25
40730;BME280;26418;50.070;8.436;2023-02-10T13:37:03;102120.16;;;5.27;64.68
40730;BME280;26418;50.070;8.436;2023-02-10T13:39:29;102108.44;;;5.15;64.96
40730;BME280;26418;50.070;8.436;2023-02-10T13:45:06;102122.63;;;5.35;64.90
40730;BME280;26418;50.070;8.436;2023-02-10T14:01:48;102110.59;;;5.97;63.80
40730;BME280;26418;50.070;8.436;2023-02-10T14:06:44;102111.31;;;6.24;63.05
40730;BME280;26418;50.070;8.436;2023-02-10T14:11:53;102106.22;;;6.41;62.11
40730;BME280;26418;50.070;8.436;2023-02-10T14:14:39;102106.44;;;6.40;61.88
40730;BME280;26418;50.070;8.436;2023-02-10T14:17:17;102092.81;;;6.35;62.08
40730;BME280;26418;50.070;8.436;2023-02-10T14:19:51;102097.00;;;6.31;62.66
40730;BME280;26418;50.070;8.436;2023-02-10T14:24:55;102074.88;;;6.28;62.49
40730;BME280;26418;50.070;8.436;2023-02-10T14:27:25;102097.81;;;6.31;62.62
40730;BME280;26418;50.070;8.436;2023-02-10T14:30:11;102082.72;;;6.30;62.64
40730;BME280;26418;50.070;8.436;2023-02-10T14:32:44;102085.13;;;6.13;63.21
40730;BME280;26418;50.070;8.436;2023-02-10T14:35:22;102082.84;;;6.10;63.31
40730;BME280;26418;50.070;8.436;2023-02-10T14:37:52;102076.75;;;5.96;63.33
40730;BME280;26418;50.070;8.436;2023-02-10T14:40:21;102088.50;;;6.02;63.90
40730;BME280;26418;50.070;8.436;2023-02-10T14:42:46;102084.56;;;5.97;63.47
40730;BME280;26418;50.070;8.436;2023-02-10T14:45:24;102080.31;;;5.83;63.59
40730;BME280;26418;50.070;8.436;2023-02-10T14:47:53;102094.53;;;5.90;64.21
40730;BME280;26418;50.070;8.436;2023-02-10T14:52:52;102086.91;;;5.87;64.40
40730;BME280;26418;50.070;8.436;2023-02-10T14:57:47;102082.78;;;5.85;64.58
40730;BME280;26418;50.070;8.436;2023-02-10T15:00:13;102086.75;;;5.75;64.83
40730;BME280;26418;50.070;8.436;2023-02-10T15:02:39;102086.75;;;5.75;65.08
40730;BME280;26418;50.070;8.436;2023-02-10T15:05:07;102083.28;;;5.68;65.18